Time;durP1;ratioP1;P1;durP2;ratioP2;P2;SDS_P1;SDS_P2;PMS_P1;PMS_P2;Temp;Humidity;BMP_temperature;BMP_pressure;BME280_temperature;BME280_humidity;BME280_pressure;Samples;Min_cycle;Max_cycle;Signal;HPM_P1;HPM_P2
2022/05/20 00:00:52;;;;;;;19.38;11.05;;;;;;;13.38;100.00;102121.13;4989890;28;20051;-60
2022/05/20 00:03:20;;;;;;;16.52;10.20;;;;;;;13.31;100.00;102131.16;4994461;28;20038;-58
2022/05/20 00:05:49;;;;;;;18.38;10.20;;;;;;;13.20;100.00;102131.75;4995367;28;20105;-58
2022/05/20 00:08:17;;;;;;;15.88;10.00;;;;;;;13.22;100.00;102129.03;4993828;28;20101;-61
2022/05/20 00:10:47;;;;;;;15.25;10.30;;;;;;;13.15;100.00;102133.81;4992796;28;20058;-60
2022/05/20 00:13:15;;;;;;;15.95;10.05;;;;;;;13.08;100.00;102141.22;4989772;28;20054;-59
2022/05/20 00:15:43;;;;;;;14.73;9.60;;;;;;;13.07;100.00;102131.56;4994057;28;20101;-57
2022/05/20 00:18:11;;;;;;;16.95;10.18;;;;;;;13.11;100.00;102140.19;4995160;28;20054;-57
2022/05/20 00:20:39;;;;;;;15.07;9.82;;;;;;;13.10;100.00;102134.06;4992979;28;20050;-59
2022/05/20 00:23:08;;;;;;;15.90;9.95;;;;;;;13.16;100.00;102130.22;4994904;28;20039;-57
2022/05/20 00:25:48;;;;;;;14.15;10.00;;;;;;;13.08;100.00;102135.94;4995073;28;20481;-57
2022/05/20 00:28:20;;;;;;;15.15;9.65;;;;;;;13.07;100.00;102139.50;4994291;28;20038;-59
2022/05/20 00:30:50;;;;;;;16.30;9.98;;;;;;;13.09;100.00;102142.06;4994578;28;20406;-57
2022/05/20 00:33:18;;;;;;;14.98;10.35;;;;;;;13.06;100.00;102137.81;4993341;28;20465;-57
2022/05/20 00:35:47;;;;;;;15.02;9.77;;;;;;;13.04;100.00;102138.84;4991261;28;20052;-58
2022/05/20 00:38:16;;;;;;;16.58;10.38;;;;;;;12.95;100.00;102130.50;4992732;28;20046;-58
2022/05/20 00:40:45;;;;;;;14.63;10.60;;;;;;;12.91;100.00;102128.94;4994762;28;20058;-58
2022/05/20 00:43:23;;;;;;;15.73;10.18;;;;;;;12.87;100.00;102129.19;4990791;28;20057;-58
2022/05/20 00:45:53;;;;;;;16.65;10.05;;;;;;;12.67;100.00;102117.94;4991626;28;20049;-57
2022/05/20 00:48:21;;;;;;;14.30;9.98;;;;;;;12.73;100.00;102128.13;4994470;28;20038;-58
2022/05/20 00:51:06;;;;;;;16.65;11.07;;;;;;;12.66;100.00;102129.41;4994597;28;20053;-59
2022/05/20 00:53:38;;;;;;;20.20;10.80;;;;;;;12.59;100.00;102128.03;4994490;28;20569;-58
2022/05/20 00:56:09;;;;;;;16.07;10.77;;;;;;;12.64;100.00;102129.50;4994522;28;20533;-57
2022/05/20 00:58:41;;;;;;;19.95;10.88;;;;;;;12.60;100.00;102125.31;4993147;28;20051;-60
2022/05/20 01:01:09;;;;;;;18.67;10.63;;;;;;;12.59;100.00;102123.59;4994527;28;20043;-59
2022/05/20 01:03:39;;;;;;;15.90;10.50;;;;;;;12.63;100.00;102129.59;4994775;28;20531;-59
2022/05/20 01:06:09;;;;;;;15.13;10.07;;;;;;;12.64;100.00;102126.84;4990442;28;20370;-59
2022/05/20 01:08:39;;;;;;;16.60;10.30;;;;;;;12.69;100.00;102139.78;4991404;28;20572;-58
2022/05/20 01:11:08;;;;;;;15.13;9.98;;;;;;;12.61;100.00;102132.31;4993706;28;20062;-59
2022/05/20 01:13:36;;;;;;;14.95;10.48;;;;;;;12.57;100.00;102125.50;4993847;28;20170;-58
2022/05/20 01:16:10;;;;;;;15.20;10.18;;;;;;;12.61;100.00;102121.75;4993796;28;20057;-59
2022/05/20 01:18:41;;;;;;;14.20;9.73;;;;;;;12.60;100.00;102132.41;4994146;28;20505;-60
2022/05/20 01:21:09;;;;;;;16.48;11.02;;;;;;;12.46;100.00;102127.81;4993870;28;20058;-58
2022/05/20 01:23:39;;;;;;;14.63;10.15;;;;;;;12.45;100.00;102126.13;4992593;28;20077;-58
2022/05/20 01:26:07;;;;;;;14.73;10.80;;;;;;;12.44;100.00;102135.81;4992301;28;20104;-58
2022/05/20 01:28:36;;;;;;;16.60;10.65;;;;;;;12.47;100.00;102132.16;4990439;28;20046;-58
2022/05/20 01:31:07;;;;;;;14.90;9.95;;;;;;;12.42;100.00;102131.56;4987813;28;20046;-56
2022/05/20 01:33:37;;;;;;;16.17;10.73;;;;;;;12.37;100.00;102129.16;4993658;28;20047;-58
2022/05/20 01:36:08;;;;;;;14.15;10.50;;;;;;;12.37;100.00;102126.53;4993151;28;20050;-56
2022/05/20 01:38:38;;;;;;;16.42;10.15;;;;;;;12.41;100.00;102119.31;4993216;28;20054;-58
2022/05/20 01:41:09;;;;;;;16.67;10.23;;;;;;;12.38;100.00;102116.81;4993184;28;20054;-56
2022/05/20 01:43:52;;;;;;;17.13;10.73;;;;;;;12.41;100.00;102116.69;4989870;28;20136;-58
2022/05/20 01:46:31;;;;;;;16.40;10.63;;;;;;;12.44;100.00;102111.25;4989013;28;20042;-56
2022/05/20 01:49:30;;;;;;;17.08;10.40;;;;;;;12.38;100.00;102106.28;4993007;28;20137;-57
2022/05/20 01:52:09;;;;;;;14.57;10.43;;;;;;;12.22;100.00;102109.72;4991245;28;20058;-57
2022/05/20 01:54:50;;;;;;;16.55;10.50;;;;;;;12.16;100.00;102097.72;4988756;28;20090;-58
2022/05/20 01:57:24;;;;;;;15.43;10.93;;;;;;;12.21;100.00;102101.91;4990381;28;20058;-58
2022/05/20 02:00:01;;;;;;;16.13;10.63;;;;;;;12.22;100.00;102100.97;4993071;28;20046;-57
2022/05/20 02:02:36;;;;;;;14.77;10.18;;;;;;;12.14;100.00;102088.16;4993101;28;20489;-59
2022/05/20 02:05:14;;;;;;;15.73;10.00;;;;;;;12.10;100.00;102090.09;4992925;28;20054;-59
2022/05/20 02:07:47;;;;;;;17.80;10.48;;;;;;;12.08;100.00;102084.06;4991221;28;20073;-58
2022/05/20 02:10:23;;;;;;;15.02;9.93;;;;;;;12.04;100.00;102084.28;4989410;28;20042;-56
2022/05/20 02:12:57;;;;;;;16.48;10.48;;;;;;;12.07;100.00;102076.25;4991715;28;20137;-58
2022/05/20 02:15:31;;;;;;;15.75;10.52;;;;;;;11.97;100.00;102084.63;4992818;28;20505;-58
2022/05/20 02:18:03;;;;;;;16.15;11.18;;;;;;;11.94;100.00;102082.16;4992856;28;20043;-57
2022/05/20 02:20:36;;;;;;;15.88;11.35;;;;;;;11.89;100.00;102089.41;4990352;28;20378;-57
2022/05/20 02:23:08;;;;;;;16.50;10.98;;;;;;;11.87;100.00;102071.97;4989212;28;20057;-57
2022/05/20 02:25:42;;;;;;;16.02;10.73;;;;;;;11.91;100.00;102073.50;4992868;28;20509;-57
2022/05/20 02:28:15;;;;;;;15.77;10.88;;;;;;;11.93;100.00;102075.13;4991029;28;20097;-57
2022/05/20 02:30:43;;;;;;;;;;;;;;;11.90;100.00;102082.34;4989193;28;20049;-57
2022/05/20 02:33:14;;;;;;;16.42;11.68;;;;;;;11.90;100.00;102077.06;4991750;28;19930;-59
2022/05/20 02:35:43;;;;;;;16.08;11.23;;;;;;;11.83;100.00;102074.75;4992663;28;20532;-58
2022/05/20 02:38:14;;;;;;;19.00;11.75;;;;;;;11.80;100.00;102081.97;4991707;28;20513;-57
2022/05/20 02:40:47;;;;;;;16.52;11.75;;;;;;;11.83;100.00;102081.78;4988594;28;20410;-57
2022/05/20 02:43:16;;;;;;;16.58;11.85;;;;;;;11.79;100.00;102082.88;4990455;28;20057;-56
2022/05/20 02:45:46;;;;;;;18.35;12.98;;;;;;;11.78;100.00;102081.16;4992662;28;20046;-59
2022/05/20 02:48:17;;;;;;;18.95;12.32;;;;;;;11.76;100.00;102080.41;4992644;28;20050;-58
2022/05/20 02:50:46;;;;;;;16.40;11.82;;;;;;;11.74;100.00;102071.72;4991334;28;20038;-59
2022/05/20 02:53:14;;;;;;;18.88;12.23;;;;;;;11.75;100.00;102068.16;4988858;28;20058;-59
2022/05/20 02:55:43;;;;;;;18.65;12.82;;;;;;;11.79;100.00;102070.56;4990593;28;20122;-59
2022/05/20 03:04:09;;;;;;;18.10;12.13;;;;;;;11.75;100.00;102070.78;4992326;28;20042;-59
2022/05/20 03:04:10;;;;;;;19.80;11.80;;;;;;;11.71;100.00;102071.88;4992280;28;20104;-58
2022/05/20 03:06:40;;;;;;;16.13;11.48;;;;;;;11.72;100.00;102081.50;4987648;28;20057;-57
2022/05/20 03:09:09;;;;;;;17.42;11.70;;;;;;;11.69;100.00;102081.66;4988673;28;20141;-58
2022/05/20 03:11:40;;;;;;;17.92;12.35;;;;;;;11.60;100.00;102075.91;4992218;28;20125;-59
2022/05/20 03:14:09;;;;;;;16.90;12.18;;;;;;;11.60;100.00;102075.03;4992269;28;20050;-60
2022/05/20 03:16:39;;;;;;;16.80;12.00;;;;;;;11.66;100.00;102075.59;4977448;28;20050;-59
2022/05/20 03:19:08;;;;;;;16.13;12.05;;;;;;;11.60;100.00;102073.28;4972547;28;20109;-58
2022/05/20 03:21:37;;;;;;;18.75;12.57;;;;;;;11.60;100.00;102073.28;4972501;28;20050;-58
2022/05/20 03:24:07;;;;;;;16.40;12.18;;;;;;;11.61;100.00;102072.34;4972577;28;20426;-58
2022/05/20 03:26:36;;;;;;;18.60;13.05;;;;;;;11.59;100.00;102074.22;4980434;28;20077;-57
2022/05/20 03:29:06;;;;;;;14.48;12.15;;;;;;;11.58;100.00;102069.03;4991764;28;20066;-59
2022/05/20 03:31:37;;;;;;;16.65;11.93;;;;;;;11.56;100.00;102063.84;4990600;28;20502;-58
2022/05/20 03:34:06;;;;;;;16.85;11.90;;;;;;;11.47;100.00;102072.19;4991855;28;20060;-58
2022/05/20 03:36:35;;;;;;;15.70;11.18;;;;;;;11.42;100.00;102074.19;4990244;28;20129;-58
2022/05/20 03:39:04;;;;;;;16.67;12.27;;;;;;;11.42;100.00;102077.66;4991244;28;20046;-58
2022/05/20 03:41:32;;;;;;;16.67;12.15;;;;;;;11.36;100.00;102082.38;4991935;28;20046;-57
2022/05/20 03:44:04;;;;;;;15.75;11.90;;;;;;;11.43;100.00;102083.81;4991962;28;20057;-58
2022/05/20 03:46:33;;;;;;;18.33;11.77;;;;;;;11.40;100.00;102084.81;4988917;28;20089;-58
2022/05/20 03:49:02;;;;;;;14.60;10.68;;;;;;;11.45;100.00;102079.28;4989377;28;20505;-58
2022/05/20 03:51:31;;;;;;;17.73;12.82;;;;;;;11.33;100.00;102088.66;4992129;28;20429;-59
2022/05/20 03:53:59;;;;;;;17.25;12.88;;;;;;;11.39;100.00;102084.88;4992171;28;20405;-58
2022/05/20 03:56:27;;;;;;;19.98;13.43;;;;;;;11.39;100.00;102092.78;4995160;28;20521;-58
2022/05/20 03:58:55;;;;;;;18.67;14.13;;;;;;;11.34;100.00;102085.09;4994051;28;20528;-57
2022/05/20 04:04:10;;;;;;;16.65;13.23;;;;;;;11.37;100.00;102097.25;4995252;28;20057;-58
2022/05/20 04:06:38;;;;;;;17.83;14.43;;;;;;;11.38;100.00;102086.63;4993642;28;20046;-58
2022/05/20 04:09:06;;;;;;;19.55;13.68;;;;;;;11.37;100.00;102095.50;4991504;28;20133;-57
2022/05/20 04:11:35;;;;;;;19.50;14.55;;;;;;;11.34;100.00;102095.63;4994970;28;20108;-59
2022/05/20 04:14:03;;;;;;;19.95;14.75;;;;;;;11.29;100.00;102097.66;4993896;28;20050;-58
2022/05/20 04:16:31;;;;;;;19.02;14.10;;;;;;;11.28;100.00;102093.31;4991911;28;20461;-58
2022/05/20 04:18:59;;;;;;;19.05;14.65;;;;;;;11.29;100.00;102095.84;4992938;28;20334;-57
2022/05/20 04:21:29;;;;;;;26.70;18.02;;;;;;;11.31;100.00;102098.41;4995190;28;20101;-59
2022/05/20 04:24:03;;;;;;;22.33;17.75;;;;;;;11.29;100.00;102089.75;4995189;28;20375;-58
2022/05/20 04:26:31;;;;;;;23.50;18.23;;;;;;;11.31;100.00;102088.72;4995198;28;20447;-58
2022/05/20 04:28:59;;;;;;;25.38;18.05;;;;;;;11.26;100.00;102093.38;4994908;28;20054;-57
2022/05/20 04:31:28;;;;;;;26.13;18.13;;;;;;;11.30;100.00;102099.31;4994977;28;20107;-58
2022/05/20 04:33:56;;;;;;;54.25;18.65;;;;;;;11.38;100.00;102105.06;4992754;28;20433;-58
2022/05/20 04:36:24;;;;;;;23.02;18.70;;;;;;;11.32;100.00;102093.06;4991319;28;20050;-59
2022/05/20 04:38:53;;;;;;;44.00;18.67;;;;;;;11.26;100.00;102098.66;4994812;28;20046;-59
2022/05/20 04:46:58;;;;;;;21.85;17.73;;;;;;;11.43;100.00;102099.59;4991369;28;20057;-58
2022/05/20 04:49:27;;;;;;;21.05;16.25;;;;;;;11.38;100.00;102091.06;4994647;28;20054;-57
2022/05/20 04:51:56;;;;;;;18.02;14.65;;;;;;;11.45;100.00;102081.94;4994356;28;20582;-58
2022/05/20 04:57:29;;;;;;;15.80;13.48;;;;;;;11.52;100.00;102075.44;4933978;29;20075;-58
2022/05/20 05:00:00;;;;;;;19.02;15.80;;;;;;;11.51;100.00;102073.75;4929762;29;20063;-58
2022/05/20 05:02:28;;;;;;;41.65;17.50;;;;;;;11.51;100.00;102084.28;4962066;28;20058;-57
2022/05/20 05:04:56;;;;;;;34.60;17.13;;;;;;;11.49;100.00;102083.47;4994358;28;20050;-57
2022/05/20 05:07:25;;;;;;;24.63;16.92;;;;;;;11.48;100.00;102097.59;4993767;28;20042;-58
2022/05/20 05:09:54;;;;;;;34.28;17.25;;;;;;;11.52;100.00;102108.81;4994340;28;20065;-58
2022/05/20 05:12:23;;;;;;;20.52;18.27;;;;;;;11.55;100.00;102104.28;4994154;28;20038;-59
2022/05/20 05:14:53;;;;;;;20.48;18.13;;;;;;;11.62;100.00;102097.75;4990660;28;20085;-58
2022/05/20 05:20:08;;;;;;;21.05;18.83;;;;;;;11.71;100.00;102088.56;4993025;28;20046;-59
2022/05/20 05:22:36;;;;;;;23.58;20.10;;;;;;;11.75;100.00;102089.25;4993860;28;20486;-57
2022/05/20 05:25:11;;;;;;;30.02;20.55;;;;;;;11.81;100.00;102086.31;4990259;28;20074;-58
2022/05/20 05:27:39;;;;;;;25.25;20.92;;;;;;;11.89;100.00;102096.44;4991074;28;20038;-57
2022/05/20 05:30:10;;;;;;;24.70;21.15;;;;;;;11.98;100.00;102096.88;4992236;28;20511;-57
2022/05/20 05:32:38;;;;;;;24.60;20.25;;;;;;;12.10;100.00;102094.53;4990983;28;20054;-57
2022/05/20 05:35:09;;;;;;;24.77;20.95;;;;;;;12.22;100.00;102096.53;4988352;28;20038;-57
2022/05/20 05:37:38;;;;;;;27.60;21.05;;;;;;;12.22;100.00;102085.97;4993502;28;20058;-57
2022/05/20 05:40:08;;;;;;;29.85;22.33;;;;;;;12.26;100.00;102086.69;4991635;28;20057;-57
2022/05/20 05:42:41;;;;;;;28.17;22.27;;;;;;;12.40;100.00;102078.03;4988852;28;20054;-57
2022/05/20 05:45:11;;;;;;;26.90;21.60;;;;;;;12.48;100.00;102074.03;4990459;28;20058;-57
2022/05/20 05:47:39;;;;;;;28.48;22.33;;;;;;;12.59;100.00;102076.09;4989752;28;20061;-58
2022/05/20 05:50:08;;;;;;;30.33;22.55;;;;;;;12.63;100.00;102075.00;4990175;28;20070;-58
2022/05/20 05:52:36;;;;;;;27.27;22.50;;;;;;;12.78;100.00;102075.13;4993325;28;20487;-58
2022/05/20 05:55:05;;;;;;;29.00;21.73;;;;;;;12.88;100.00;102081.56;4993395;28;20058;-58
2022/05/20 05:57:33;;;;;;;26.42;21.17;;;;;;;13.05;100.00;102072.72;4993642;28;20057;-58
2022/05/20 06:00:05;;;;;;;30.80;23.35;;;;;;;13.15;100.00;102078.34;4992778;28;20537;-58
2022/05/20 06:02:33;;;;;;;27.15;20.65;;;;;;;13.28;100.00;102071.44;4993073;28;20042;-58
2022/05/20 06:05:01;;;;;;;27.10;20.90;;;;;;;13.37;100.00;102072.72;4991583;28;20046;-58
2022/05/20 06:07:29;;;;;;;25.20;19.98;;;;;;;13.48;100.00;102069.44;4992754;28;20101;-59
2022/05/20 06:09:58;;;;;;;27.40;21.23;;;;;;;13.58;100.00;102073.28;4990148;28;20141;-57
2022/05/20 06:12:25;;;;;;;27.48;21.38;;;;;;;13.72;100.00;102068.97;4988492;28;20046;-58
2022/05/20 06:14:54;;;;;;;26.95;19.42;;;;;;;13.79;100.00;102072.94;4992998;28;20149;-57
2022/05/20 06:17:23;;;;;;;23.58;18.38;;;;;;;13.88;100.00;102069.75;4992381;28;20042;-57
2022/05/20 06:19:51;;;;;;;22.95;19.23;;;;;;;13.98;100.00;102062.13;4992748;28;20129;-57
2022/05/20 06:22:19;;;;;;;24.23;18.45;;;;;;;14.10;100.00;102065.81;4992459;28;20070;-58
2022/05/20 06:24:47;;;;;;;21.40;15.32;;;;;;;14.27;100.00;102068.25;4992705;28;20482;-58
2022/05/20 06:27:15;;;;;;;25.08;17.60;;;;;;;14.28;100.00;102061.19;4992338;28;20779;-58
2022/05/20 06:29:43;;;;;;;22.42;16.73;;;;;;;14.36;100.00;102059.75;4988844;28;20142;-58
2022/05/20 06:32:11;;;;;;;22.23;14.95;;;;;;;14.47;100.00;102047.66;4990022;28;20066;-58
2022/05/20 06:40:21;;;;;;;23.23;14.73;;;;;;;14.93;100.00;102044.78;4989260;28;20675;-58
2022/05/20 06:42:49;;;;;;;21.83;15.20;;;;;;;15.06;100.00;102038.69;4989549;28;20046;-58
2022/05/20 06:45:18;;;;;;;18.02;12.77;;;;;;;15.25;100.00;102033.03;4992280;28;20138;-58
2022/05/20 06:47:46;;;;;;;22.92;14.63;;;;;;;15.36;100.00;102041.94;4992126;28;20046;-58
2022/05/20 06:50:15;;;;;;;21.63;13.38;;;;;;;15.43;100.00;102030.94;4988249;28;20054;-57
2022/05/20 06:52:43;;;;;;;19.67;13.35;;;;;;;15.48;100.00;102031.50;4989942;28;20038;-59
2022/05/20 06:55:11;;;;;;;20.77;14.30;;;;;;;15.54;100.00;102036.34;4992295;28;20425;-58
2022/05/20 06:57:40;;;;;;;20.25;14.40;;;;;;;15.72;100.00;102037.78;4992471;28;20455;-58
2022/05/20 07:00:12;;;;;;;22.52;13.68;;;;;;;15.92;100.00;102051.50;4992267;28;20046;-60
2022/05/20 07:02:40;;;;;;;20.65;14.45;;;;;;;16.01;100.00;102037.59;4989515;28;20041;-59
2022/05/20 07:05:10;;;;;;;20.70;13.85;;;;;;;16.12;100.00;102039.50;4989675;28;20057;-58
2022/05/20 07:07:40;;;;;;;19.48;13.50;;;;;;;16.26;100.00;102038.53;4990679;28;20120;-59
2022/05/20 07:10:11;;;;;;;20.63;13.52;;;;;;;16.41;100.00;102025.16;4989052;28;20121;-59
2022/05/20 07:12:39;;;;;;;21.45;14.23;;;;;;;16.57;99.21;102025.75;4991089;28;20069;-58
2022/05/20 07:15:08;;;;;;;20.75;13.43;;;;;;;16.68;99.50;102015.19;4992463;28;20050;-58
2022/05/20 07:17:37;;;;;;;17.75;12.80;;;;;;;16.87;99.58;102022.66;4992327;28;20050;-57
2022/05/20 07:20:07;;;;;;;18.58;13.80;;;;;;;16.98;96.37;102007.78;4991999;28;20222;-60
2022/05/20 07:22:35;;;;;;;19.40;12.80;;;;;;;17.13;95.98;102008.44;4992296;28;20090;-60
2022/05/20 07:25:05;;;;;;;18.63;13.60;;;;;;;17.15;92.27;102001.19;4990023;28;20051;-61
2022/05/20 07:27:33;;;;;;;19.15;13.30;;;;;;;17.20;95.46;101993.72;4988344;28;20050;-57
2022/05/20 07:30:01;;;;;;;21.77;13.70;;;;;;;17.34;93.69;101987.34;4993931;28;20073;-59
2022/05/20 07:32:29;;;;;;;19.58;13.60;;;;;;;17.53;93.57;101984.16;4992820;28;20770;-60
2022/05/20 07:34:58;;;;;;;21.33;14.50;;;;;;;17.72;92.11;101979.13;4995051;28;20052;-60
2022/05/20 07:37:26;;;;;;;19.63;12.68;;;;;;;17.73;88.94;101974.63;4996188;28;20445;-58
2022/05/20 07:39:54;;;;;;;19.77;14.30;;;;;;;17.89;89.40;101976.94;4995784;28;20382;-60
2022/05/20 07:42:23;;;;;;;23.42;14.98;;;;;;;17.84;90.12;101971.97;4995809;28;20069;-61
2022/05/20 07:44:51;;;;;;;17.42;13.23;;;;;;;18.04;90.09;101975.75;4995392;28;20042;-57
2022/05/20 07:47:20;;;;;;;19.05;12.75;;;;;;;18.27;87.34;101973.09;4995597;28;20050;-60
2022/05/20 07:49:48;;;;;;;19.10;13.43;;;;;;;18.35;87.51;101960.00;4995637;28;20686;-58
2022/05/20 07:53:19;;;;;;;18.40;12.85;;;;;;;18.60;88.95;101947.34;4995521;28;20137;-59
2022/05/20 07:55:09;;;;;;;19.88;12.77;;;;;;;18.66;83.96;101936.19;4995908;28;20073;-61
2022/05/20 07:57:41;;;;;;;17.98;11.85;;;;;;;18.79;82.01;101933.34;4995689;28;20042;-61
2022/05/20 08:00:12;;;;;;;20.57;13.77;;;;;;;18.93;83.25;101932.22;4995526;28;20422;-58
2022/05/20 08:02:42;;;;;;;19.60;14.07;;;;;;;19.13;83.59;101933.22;4995594;28;20366;-59
2022/05/20 08:05:15;;;;;;;18.30;13.07;;;;;;;19.44;84.38;101930.59;4992281;28;20134;-59
2022/05/20 08:07:46;;;;;;;14.65;10.38;;;;;;;19.68;78.61;101932.97;4992748;28;20476;-60
2022/05/20 08:10:16;;;;;;;17.27;12.07;;;;;;;19.70;74.91;101931.03;4995212;28;20466;-62
2022/05/20 08:12:46;;;;;;;15.50;10.45;;;;;;;19.93;76.45;101922.84;4995122;28;20140;-59
2022/05/20 08:15:16;;;;;;;15.77;11.25;;;;;;;20.08;76.24;101912.63;4993303;28;20108;-57
2022/05/20 08:17:44;;;;;;;16.50;10.38;;;;;;;20.26;73.20;101910.16;4994769;28;20069;-57
2022/05/20 08:20:18;;;;;;;14.38;9.15;;;;;;;20.22;67.66;101914.94;4994767;28;20042;-58
2022/05/20 08:22:46;;;;;;;15.63;8.95;;;;;;;20.24;71.22;101912.09;4994869;28;20588;-57
2022/05/20 08:25:14;;;;;;;14.40;9.65;;;;;;;20.43;72.13;101913.97;4995174;28;20114;-59
2022/05/20 08:27:42;;;;;;;15.15;10.18;;;;;;;20.70;75.31;101917.81;4994630;28;20405;-60
2022/05/20 08:30:15;;;;;;;16.45;11.10;;;;;;;20.97;75.40;101914.44;4994332;28;20409;-57
2022/05/20 08:32:43;;;;;;;18.17;12.05;;;;;;;21.01;74.67;101914.97;4995055;28;20049;-60
2022/05/20 08:35:12;;;;;;;16.20;11.27;;;;;;;21.04;74.06;101915.53;4993814;28;20133;-60
2022/05/20 08:37:42;;;;;;;17.88;12.75;;;;;;;21.25;72.79;101910.00;4991232;28;20097;-61
2022/05/20 08:40:12;;;;;;;18.90;12.00;;;;;;;21.32;72.68;101902.22;4993280;28;20393;-61
2022/05/20 08:42:41;;;;;;;14.63;10.15;;;;;;;21.38;67.78;101906.19;4994686;28;20153;-60
2022/05/20 08:45:23;;;;;;;11.82;8.18;;;;;;;21.51;63.95;101893.31;4993747;28;20868;-60
2022/05/20 08:47:52;;;;;;;12.88;8.88;;;;;;;21.51;66.71;101900.50;4992059;28;20109;-60
2022/05/20 08:50:24;;;;;;;12.68;9.02;;;;;;;21.66;65.68;101891.03;4993448;28;20152;-58
2022/05/20 08:52:57;;;;;;;16.23;9.82;;;;;;;21.77;66.59;101893.53;4994068;28;20050;-58
2022/05/20 08:55:26;;;;;;;15.40;9.43;;;;;;;21.82;63.98;101897.59;4991325;28;20079;-58
2022/05/20 08:57:58;;;;;;;14.05;8.50;;;;;;;21.93;61.07;101894.69;4991324;28;20062;-63
2022/05/20 09:00:29;;;;;;;11.13;7.25;;;;;;;21.92;58.64;101884.97;4994196;28;20084;-61
2022/05/20 09:02:57;;;;;;;11.85;6.43;;;;;;;21.99;58.89;101875.38;4994048;28;20046;-61
2022/05/20 09:05:30;;;;;;;12.43;8.82;;;;;;;22.21;61.79;101865.19;4990614;28;20101;-62
2022/05/20 09:08:03;;;;;;;15.93;11.13;;;;;;;22.29;64.28;101846.53;4990260;28;20035;-63
2022/05/20 09:10:39;;;;;;;14.63;9.68;;;;;;;22.26;64.33;101845.03;4994081;28;20057;-63
2022/05/20 09:13:11;;;;;;;13.73;10.18;;;;;;;22.15;64.16;101844.38;4990688;28;20486;-62
2022/05/20 09:15:44;;;;;;;15.27;9.45;;;;;;;22.13;62.32;101836.50;4989709;28;20129;-60
2022/05/20 09:18:17;;;;;;;14.45;9.00;;;;;;;22.32;63.41;101821.25;4988368;28;20042;-63
2022/05/20 09:20:48;;;;;;;9.10;4.88;;;;;;;22.43;54.89;101811.19;4984218;28;20034;-64
2022/05/20 09:23:20;;;;;;;11.63;7.70;;;;;;;22.23;56.76;101806.97;4991066;28;20528;-63
2022/05/20 09:26:00;;;;;;;11.60;6.78;;;;;;;21.90;57.99;101803.97;4987646;28;20114;-62
2022/05/20 09:28:40;;;;;;;12.38;5.88;;;;;;;22.19;57.29;101800.22;4982131;28;20090;-63
2022/05/20 09:31:17;;;;;;;14.82;6.60;;;;;;;22.26;54.94;101798.63;4973982;28;20051;-64
2022/05/20 09:33:52;;;;;;;12.00;7.35;;;;;;;22.27;57.34;101789.59;4973911;28;20082;-63
2022/05/20 09:36:35;;;;;;;12.50;7.43;;;;;;;22.48;56.80;101788.44;4974038;28;20055;-61
2022/05/20 09:39:13;;;;;;;11.63;7.85;;;;;;;22.37;57.86;101782.31;4974430;28;20399;-63
2022/05/20 09:41:52;;;;;;;14.20;8.20;;;;;;;22.53;58.30;101783.47;4972389;28;20039;-62
2022/05/20 09:44:24;;;;;;;13.55;8.60;;;;;;;22.59;58.13;101791.72;4969254;28;20051;-62
2022/05/20 09:46:56;;;;;;;13.15;8.43;;;;;;;22.64;58.42;101788.56;4972517;28;20054;-64
2022/05/20 09:49:37;;;;;;;13.88;7.85;;;;;;;22.87;59.57;101780.00;4973559;28;20149;-61
2022/05/20 09:52:17;;;;;;;12.48;8.52;;;;;;;22.90;56.62;101790.41;4968607;28;20497;-63
2022/05/20 09:54:49;;;;;;;11.23;7.35;;;;;;;23.12;54.60;101791.69;4972150;28;20047;-63
2022/05/20 09:57:23;;;;;;;10.53;7.00;;;;;;;22.97;55.23;101780.72;4973718;28;20126;-63
2022/05/20 09:59:55;;;;;;;11.68;7.15;;;;;;;23.17;53.74;101781.34;4973406;28;20468;-63
2022/05/20 10:02:29;;;;;;;10.80;7.00;;;;;;;23.11;55.53;101769.41;4973812;28;20045;-64
2022/05/20 10:05:16;;;;;;;10.90;6.50;;;;;;;23.19;52.76;101757.06;4973636;28;20047;-62
2022/05/20 10:08:02;;;;;;;10.80;5.70;;;;;;;23.09;53.30;101757.16;4973280;28;20067;-64
2022/05/20 10:10:40;;;;;;;9.63;5.55;;;;;;;23.32;54.73;101746.72;4969817;28;20115;-61
2022/05/20 10:13:17;;;;;;;11.48;5.95;;;;;;;23.15;54.12;101742.28;4970516;28;20375;-61
2022/05/20 10:15:51;;;;;;;9.35;5.85;;;;;;;23.34;52.74;101728.63;4974001;28;20462;-64
2022/05/20 10:18:31;;;;;;;10.30;6.10;;;;;;;23.26;52.70;101715.16;4973421;28;20047;-61
2022/05/20 10:21:04;;;;;;;11.60;6.25;;;;;;;23.31;52.49;101704.78;4973590;28;20050;-61
2022/05/20 10:23:38;;;;;;;14.77;6.35;;;;;;;23.24;51.46;101693.84;4972016;28;20051;-63
2022/05/20 10:26:15;;;;;;;9.13;5.57;;;;;;;23.26;53.90;101688.31;4968439;28;20786;-64
2022/05/20 10:34:34;;;;;;;9.70;6.47;;;;;;;23.30;52.60;101668.19;4973600;28;20066;-63
2022/05/20 10:37:09;;;;;;;8.48;5.47;;;;;;;23.44;52.26;101656.84;4973459;28;20065;-62
2022/05/20 10:40:03;;;;;;;12.13;4.57;;;;;;;23.71;51.03;101649.50;4973594;28;20525;-63
2022/05/20 10:42:49;;;;;;;10.00;6.10;;;;;;;23.85;50.44;101644.47;4973378;28;20050;-63
2022/05/20 10:48:44;;;;;;;10.80;5.88;;;;;;;24.22;52.35;101618.91;4926265;28;20126;-62
2022/05/20 10:51:42;;;;;;;12.65;5.75;;;;;;;24.68;48.69;101611.06;4968455;28;20058;-63
2022/05/20 10:54:34;;;;;;;11.15;5.60;;;;;;;24.94;48.64;101604.56;4970055;28;20160;-63
2022/05/20 10:57:25;;;;;;;11.38;6.50;;;;;;;25.02;47.32;101590.19;4968146;28;20407;-63
2022/05/20 11:00:05;;;;;;;10.43;6.70;;;;;;;24.67;48.64;101585.19;4971939;28;20682;-63
2022/05/20 11:03:08;;;;;;;10.95;5.80;;;;;;;24.60;47.89;101571.56;4973655;28;20150;-63
2022/05/20 11:05:58;;;;;;;9.10;4.45;;;;;;;24.89;45.42;101551.28;4970996;28;20093;-63
2022/05/20 11:08:39;;;;;;;8.48;5.05;;;;;;;25.07;45.89;101545.63;4969250;28;20050;-65
2022/05/20 11:11:28;;;;;;;9.35;5.30;;;;;;;24.94;45.71;101532.75;4973015;28;20517;-66
2022/05/20 11:14:12;;;;;;;8.80;5.25;;;;;;;24.75;48.11;101522.47;4971619;28;20141;-64
2022/05/20 11:16:59;;;;;;;10.52;5.75;;;;;;;24.96;46.92;101517.28;4973225;28;20050;-62
2022/05/20 11:19:44;;;;;;;10.13;6.05;;;;;;;24.64;49.22;101504.88;4972848;28;20062;-65
2022/05/20 11:22:47;;;;;;;11.77;5.43;;;;;;;24.79;47.47;101492.34;4970157;28;20047;-64
2022/05/20 11:25:36;;;;;;;12.70;6.85;;;;;;;24.69;47.06;101472.94;4968224;28;20047;-63
2022/05/20 11:28:26;;;;;;;11.52;7.20;;;;;;;24.69;48.80;101466.69;4973011;28;20094;-63
2022/05/20 11:31:08;;;;;;;12.02;7.35;;;;;;;24.83;48.70;101447.09;4972459;28;20054;-63
2022/05/20 11:33:52;;;;;;;11.90;7.43;;;;;;;24.97;50.05;101432.03;4972904;28;20086;-65
2022/05/20 11:36:52;;;;;;;12.93;8.13;;;;;;;24.80;49.84;101429.47;4972664;28;20057;-64
2022/05/20 11:39:55;;;;;;;15.70;8.68;;;;;;;24.62;50.09;101412.78;4972577;28;20046;-65
2022/05/20 11:42:34;;;;;;;16.67;9.48;;;;;;;24.56;51.01;101408.13;4972637;28;20058;-66
2022/05/20 11:45:15;;;;;;;13.77;9.80;;;;;;;24.18;53.18;101394.59;4972680;28;20178;-63
2022/05/20 11:48:04;;;;;;;13.70;9.77;;;;;;;24.30;53.60;101395.84;4969966;28;20057;-63
2022/05/20 11:50:50;;;;;;;14.02;9.73;;;;;;;24.40;53.76;101401.00;4968756;28;20162;-64
2022/05/20 11:53:24;;;;;;;15.25;10.38;;;;;;;24.24;53.87;101391.16;4972757;28;20133;-65
2022/05/20 11:55:58;;;;;;;16.83;10.63;;;;;;;24.13;55.45;101390.56;4973229;28;20411;-64
2022/05/20 11:58:33;;;;;;;14.93;10.70;;;;;;;24.06;56.31;101383.38;4973471;28;20062;-63
2022/05/20 12:01:02;;;;;;;14.88;10.50;;;;;;;24.08;55.22;101381.38;4989080;28;20051;-64
2022/05/20 12:04:06;;;;;;;15.70;11.05;;;;;;;23.90;57.01;101374.41;4991429;28;20204;-63